Time;durP1;ratioP1;P1;durP2;ratioP2;P2;SDS_P1;SDS_P2;PMS_P1;PMS_P2;Temp;Humidity;BMP_temperature;BMP_pressure;BME280_temperature;BME280_humidity;BME280_pressure;Samples;Min_cycle;Max_cycle;Signal;HPM_P1;HPM_P2
2023/11/09 00:02:06;;;;;;;2.93;1.67;;;10.10;99.90;;;;;;5071898;28;20951;-62
2023/11/09 00:04:31;;;;;;;1.70;1.60;;;10.00;99.90;;;;;;5087406;28;20242;-64
2023/11/09 00:06:57;;;;;;;2.10;1.70;;;10.10;99.90;;;;;;5088537;28;20429;-62
2023/11/09 00:09:23;;;;;;;2.40;1.90;;;10.10;99.90;;;;;;5088876;28;20180;-62
2023/11/09 00:11:49;;;;;;;1.60;1.50;;;10.10;99.90;;;;;;5087567;28;20180;-63
2023/11/09 00:14:16;;;;;;;1.50;1.40;;;10.10;99.90;;;;;;5087354;28;20180;-62
2023/11/09 00:16:46;;;;;;;1.90;1.40;;;10.10;99.90;;;;;;5090693;28;20544;-62
2023/11/09 00:19:13;;;;;;;2.50;1.83;;;10.10;99.90;;;;;;5087845;28;20426;-63
2023/11/09 00:21:39;;;;;;;2.63;1.80;;;10.00;99.90;;;;;;5087270;28;20461;-62
2023/11/09 00:24:10;;;;;;;1.67;1.57;;;10.00;99.90;;;;;;5087296;28;21194;-62
2023/11/09 00:26:41;;;;;;;1.63;1.30;;;10.00;99.90;;;;;;5086994;28;20503;-64
2023/11/09 00:29:07;;;;;;;2.67;1.70;;;10.00;99.90;;;;;;5087277;28;20907;-62
2023/11/09 00:31:33;;;;;;;2.70;1.50;;;10.00;99.90;;;;;;5087133;28;20438;-63
2023/11/09 00:33:58;;;;;;;2.40;1.80;;;10.00;99.90;;;;;;5087668;28;20184;-63
2023/11/09 00:36:24;;;;;;;1.77;1.57;;;10.10;99.90;;;;;;5090737;28;20196;-62
2023/11/09 00:38:50;;;;;;;3.50;1.93;;;10.10;99.90;;;;;;5087831;28;20188;-61
2023/11/09 00:41:16;;;;;;;1.73;1.60;;;10.00;99.90;;;;;;5085596;28;20555;-63
2023/11/09 00:43:42;;;;;;;2.50;1.60;;;10.10;99.90;;;;;;5086930;28;20275;-63
2023/11/09 00:46:07;;;;;;;2.30;1.87;;;10.10;99.90;;;;;;5090564;28;20204;-62
2023/11/09 00:48:33;;;;;;;1.87;1.37;;;10.10;99.90;;;;;;5088291;28;20422;-62
2023/11/09 00:51:00;;;;;;;1.60;1.50;;;10.10;99.90;;;;;;5087719;28;20188;-62
2023/11/09 00:53:27;;;;;;;3.30;1.70;;;10.10;99.90;;;;;;5087205;28;20176;-62
2023/11/09 00:55:52;;;;;;;2.63;1.60;;;10.00;99.90;;;;;;5086588;28;20418;-62
2023/11/09 00:58:18;;;;;;;4.20;2.20;;;10.00;99.90;;;;;;5085376;28;20474;-62
2023/11/09 01:00:44;;;;;;;2.20;1.90;;;10.00;99.90;;;;;;5086114;28;20216;-62
2023/11/09 01:03:10;;;;;;;2.63;1.60;;;10.10;99.90;;;;;;5090298;28;20425;-62
2023/11/09 01:05:35;;;;;;;2.93;1.40;;;10.00;99.90;;;;;;5092313;28;20186;-62
2023/11/09 01:08:01;;;;;;;1.87;1.67;;;10.00;99.90;;;;;;5056731;28;20968;-62
2023/11/09 01:10:27;;;;;;;2.57;1.80;;;9.90;99.90;;;;;;5091299;28;20227;-63
2023/11/09 01:12:52;;;;;;;2.27;1.80;;;10.00;99.90;;;;;;5094798;28;20199;-62
2023/11/09 01:15:18;;;;;;;2.40;1.63;;;10.00;99.90;;;;;;5091721;28;20176;-62
2023/11/09 01:18:01;;;;;;;1.40;1.20;;;10.00;99.90;;;;;;5091726;28;20262;-63
2023/11/09 01:20:26;;;;;;;2.10;1.37;;;10.00;99.90;;;;;;5090805;28;20189;-61
2023/11/09 01:22:52;;;;;;;2.50;1.70;;;10.10;99.90;;;;;;5088639;28;20566;-63
2023/11/09 01:25:17;;;;;;;2.43;1.40;;;10.10;99.90;;;;;;5091339;28;20176;-62
2023/11/09 01:27:43;;;;;;;1.47;1.30;;;10.10;99.90;;;;;;5091913;28;20288;-62
2023/11/09 01:30:09;;;;;;;1.73;1.40;;;10.10;99.90;;;;;;5091158;28;20274;-63
2023/11/09 01:32:35;;;;;;;1.57;1.47;;;10.00;99.90;;;;;;5091139;28;20241;-63
2023/11/09 01:35:01;;;;;;;1.73;1.40;;;10.00;99.90;;;;;;5094036;28;20433;-61
2023/11/09 01:37:27;;;;;;;1.97;1.30;;;10.10;99.90;;;;;;5090168;28;20421;-63
2023/11/09 01:39:52;;;;;;;1.97;1.50;;;10.10;99.90;;;;;;5091349;28;20180;-62
2023/11/09 01:42:18;;;;;;;1.83;1.50;;;10.10;99.90;;;;;;5091107;28;20219;-64
2023/11/09 01:44:44;;;;;;;2.17;1.63;;;10.10;99.90;;;;;;5090751;28;20185;-64
2023/11/09 01:47:10;;;;;;;2.83;1.87;;;10.10;99.90;;;;;;5093983;28;20441;-62
2023/11/09 01:49:36;;;;;;;1.63;1.40;;;10.10;99.90;;;;;;5091210;28;20180;-63
2023/11/09 01:52:03;;;;;;;1.60;1.50;;;10.10;99.90;;;;;;5089644;28;20666;-63
2023/11/09 01:54:30;;;;;;;2.03;1.73;;;10.00;99.90;;;;;;5089917;28;20458;-63
2023/11/09 01:56:57;;;;;;;2.70;1.53;;;10.00;99.90;;;;;;5090798;28;20878;-63
2023/11/09 01:59:25;;;;;;;2.60;1.70;;;9.90;99.90;;;;;;5070073;28;20513;-63
2023/11/09 02:01:52;;;;;;;2.67;1.97;;;10.00;99.90;;;;;;5091072;28;21272;-62
2023/11/09 02:04:19;;;;;;;1.40;1.30;;;9.90;99.90;;;;;;5055612;28;20421;-62
2023/11/09 02:06:46;;;;;;;2.00;1.80;;;9.90;99.90;;;;;;5088417;28;21318;-62
2023/11/09 02:09:12;;;;;;;2.80;1.70;;;9.90;99.90;;;;;;5090325;28;20461;-62
2023/11/09 02:11:38;;;;;;;2.60;1.37;;;10.00;99.90;;;;;;5089658;28;20525;-62
2023/11/09 02:14:04;;;;;;;2.00;1.40;;;10.00;99.90;;;;;;5088203;28;20441;-62
2023/11/09 02:16:31;;;;;;;1.70;1.60;;;9.90;99.90;;;;;;5089196;28;20446;-64
2023/11/09 02:18:57;;;;;;;2.03;1.73;;;10.00;99.90;;;;;;5089011;28;20176;-62
2023/11/09 02:21:25;;;;;;;1.40;1.30;;;10.00;99.90;;;;;;5090193;28;20469;-62
2023/11/09 02:23:53;;;;;;;2.60;1.77;;;10.00;99.90;;;;;;5091762;28;20232;-62
2023/11/09 02:26:19;;;;;;;4.60;1.70;;;10.00;99.90;;;;;;5089699;28;20815;-63
2023/11/09 02:28:48;;;;;;;1.70;1.60;;;10.00;99.90;;;;;;5071927;28;20430;-63
2023/11/09 02:31:14;;;;;;;1.97;1.77;;;10.00;99.90;;;;;;5088941;28;20454;-63
2023/11/09 02:33:40;;;;;;;1.67;1.57;;;10.10;99.90;;;;;;5092281;28;20526;-62
2023/11/09 02:36:06;;;;;;;2.10;1.90;;;10.00;99.90;;;;;;5089722;28;20188;-62
2023/11/09 02:38:31;;;;;;;2.50;2.00;;;10.00;99.90;;;;;;5092899;28;20293;-62
2023/11/09 02:40:57;;;;;;;2.00;1.80;;;10.00;99.90;;;;;;5088918;28;21359;-62
2023/11/09 02:43:23;;;;;;;1.77;1.60;;;10.00;99.90;;;;;;5088735;28;20187;-62
2023/11/09 02:45:48;;;;;;;2.23;1.70;;;10.00;99.90;;;;;;5089311;28;20195;-63
2023/11/09 02:48:14;;;;;;;1.70;1.60;;;10.00;99.90;;;;;;5089556;28;20188;-62
2023/11/09 02:50:40;;;;;;;1.87;1.77;;;10.00;99.90;;;;;;5089251;28;20184;-63
2023/11/09 02:53:07;;;;;;;1.57;1.47;;;10.00;99.90;;;;;;5089045;28;20188;-62
2023/11/09 02:55:34;;;;;;;1.77;1.67;;;10.00;99.90;;;;;;5088946;28;20739;-62
2023/11/09 02:57:59;;;;;;;1.83;1.60;;;10.00;99.90;;;;;;5089825;28;20544;-62
2023/11/09 03:00:26;;;;;;;1.63;1.53;;;9.90;99.90;;;;;;5086651;28;20876;-63
2023/11/09 03:02:51;;;;;;;1.90;1.70;;;9.90;99.90;;;;;;5089290;28;20216;-63
2023/11/09 03:05:21;;;;;;;1.87;1.63;;;9.90;99.90;;;;;;5088341;28;21091;-62
2023/11/09 03:07:47;;;;;;;2.70;1.67;;;9.90;99.90;;;;;;5087621;28;20237;-63
2023/11/09 03:10:13;;;;;;;2.20;2.00;;;9.80;99.90;;;;;;5087698;28;20440;-62
2023/11/09 03:12:39;;;;;;;2.30;1.70;;;9.80;99.90;;;;;;5088672;28;20932;-62
2023/11/09 03:15:09;;;;;;;2.77;1.80;;;9.90;99.90;;;;;;5088301;28;20180;-62
2023/11/09 03:17:39;;;;;;;2.37;2.17;;;9.80;99.90;;;;;;5086467;28;20183;-63
2023/11/09 03:20:09;;;;;;;1.70;1.60;;;9.80;99.90;;;;;;5088601;28;20518;-62
2023/11/09 03:22:36;;;;;;;1.93;1.77;;;9.90;99.90;;;;;;5087526;28;20526;-63
2023/11/09 03:25:01;;;;;;;1.70;1.60;;;9.90;99.90;;;;;;5091751;28;20426;-62
2023/11/09 03:27:27;;;;;;;1.60;1.50;;;9.90;99.90;;;;;;5088110;28;20421;-62
2023/11/09 03:29:53;;;;;;;2.00;1.80;;;9.90;99.90;;;;;;5089851;28;20550;-61
2023/11/09 03:32:18;;;;;;;2.63;2.43;;;9.90;99.90;;;;;;5089494;28;20187;-62
2023/11/09 03:34:44;;;;;;;2.67;2.00;;;9.90;99.90;;;;;;5088124;28;20191;-63
2023/11/09 03:37:10;;;;;;;3.27;1.83;;;9.90;99.90;;;;;;5088166;28;20254;-63
2023/11/09 03:39:35;;;;;;;2.53;1.63;;;9.90;99.90;;;;;;5089086;28;20269;-63
2023/11/09 03:42:01;;;;;;;1.70;1.60;;;9.90;99.90;;;;;;5090879;28;20672;-62
2023/11/09 03:44:38;;;;;;;2.50;1.67;;;10.00;99.90;;;;;;5087399;28;20186;-63
2023/11/09 03:47:03;;;;;;;1.67;1.57;;;9.90;99.90;;;;;;5087154;28;20286;-62
2023/11/09 03:49:29;;;;;;;2.23;1.80;;;10.00;99.90;;;;;;5087843;28;20490;-63
2023/11/09 03:51:55;;;;;;;3.03;1.70;;;10.00;99.90;;;;;;5088433;28;20464;-63
2023/11/09 03:54:21;;;;;;;2.33;1.50;;;9.90;99.90;;;;;;5087246;28;20195;-62
2023/11/09 03:56:46;;;;;;;2.97;1.97;;;10.00;99.90;;;;;;5089744;28;20192;-63
2023/11/09 03:59:12;;;;;;;2.00;1.50;;;10.00;99.90;;;;;;5090659;28;20206;-61
2023/11/09 04:01:38;;;;;;;1.63;1.43;;;10.00;99.90;;;;;;5088126;28;20250;-61
2023/11/09 04:04:05;;;;;;;1.43;1.33;;;10.00;99.90;;;;;;5086331;28;20211;-62
2023/11/09 04:06:32;;;;;;;1.20;0.97;;;10.10;99.90;;;;;;5087520;28;20187;-61
2023/11/09 04:08:58;;;;;;;1.50;1.40;;;10.10;99.90;;;;;;5088189;28;20458;-63
2023/11/09 04:11:24;;;;;;;1.70;1.40;;;10.10;99.90;;;;;;5090279;28;20591;-62
2023/11/09 04:13:50;;;;;;;3.50;1.10;;;10.10;99.90;;;;;;5087346;28;20179;-64
2023/11/09 04:16:15;;;;;;;1.40;1.30;;;10.10;99.90;;;;;;5087626;28;20423;-63
2023/11/09 04:18:41;;;;;;;2.33;1.43;;;10.20;99.90;;;;;;5087751;28;20431;-62
2023/11/09 04:21:09;;;;;;;1.50;1.30;;;10.20;99.90;;;;;;5088154;28;20280;-63
2023/11/09 04:23:39;;;;;;;1.30;1.20;;;10.20;99.90;;;;;;5086106;28;20894;-62
2023/11/09 04:26:08;;;;;;;1.10;0.90;;;10.20;99.90;;;;;;5086935;28;20434;-63
2023/11/09 04:28:37;;;;;;;1.93;1.07;;;10.20;99.90;;;;;;5086531;28;20422;-63
2023/11/09 04:31:06;;;;;;;1.30;1.10;;;10.20;99.90;;;;;;5087653;28;20538;-62
2023/11/09 04:33:32;;;;;;;1.40;1.03;;;10.20;99.90;;;;;;5086480;28;20430;-62
2023/11/09 04:35:58;;;;;;;1.27;1.17;;;10.10;99.90;;;;;;5067565;28;20438;-63
2023/11/09 04:38:24;;;;;;;1.97;0.87;;;10.10;99.90;;;;;;5090481;28;20972;-63
2023/11/09 04:41:03;;;;;;;1.10;1.00;;;10.10;99.90;;;;;;5091159;28;20430;-64
2023/11/09 04:43:29;;;;;;;4.13;1.60;;;10.10;99.90;;;;;;5089285;28;20187;-62
2023/11/09 04:46:05;;;;;;;2.00;1.10;;;10.10;99.90;;;;;;5073569;28;20438;-62
2023/11/09 04:48:31;;;;;;;2.37;1.60;;;10.10;99.90;;;;;;5094569;28;20441;-63
2023/11/09 04:51:01;;;;;;;1.57;1.40;;;10.20;99.90;;;;;;5091358;28;20433;-62
2023/11/09 04:53:31;;;;;;;2.00;1.37;;;10.20;99.90;;;;;;5089852;28;20460;-61
2023/11/09 04:56:09;;;;;;;1.30;1.20;;;10.10;99.90;;;;;;5090958;28;21114;-63
2023/11/09 04:58:47;;;;;;;2.00;1.37;;;10.20;99.90;;;;;;5094196;28;20433;-64
2023/11/09 05:06:48;;;;;;;1.20;1.10;;;10.20;99.90;;;;;;5090650;28;20438;-62
2023/11/09 05:09:15;;;;;;;1.73;1.30;;;10.20;99.90;;;;;;5090955;28;20999;-64
2023/11/09 05:11:41;;;;;;;1.20;1.10;;;10.20;99.90;;;;;;5090200;28;20442;-63
2023/11/09 05:14:06;;;;;;;2.80;1.30;;;10.20;99.90;;;;;;5083704;28;20449;-63
2023/11/09 05:16:32;;;;;;;1.70;1.20;;;10.20;99.90;;;;;;5089235;28;20172;-62
2023/11/09 05:18:58;;;;;;;1.80;1.20;;;10.20;99.90;;;;;;5090841;28;20184;-64
2023/11/09 05:21:23;;;;;;;1.30;1.00;;;10.10;99.90;;;;;;5090160;28;20295;-63
2023/11/09 05:23:50;;;;;;;1.30;1.20;;;10.20;99.90;;;;;;5084942;28;20183;-62
2023/11/09 05:26:15;;;;;;;1.07;0.90;;;10.20;99.90;;;;;;5089483;28;20192;-63
2023/11/09 05:28:41;;;;;;;1.10;1.00;;;10.20;99.90;;;;;;5089976;28;20498;-63
2023/11/09 05:31:08;;;;;;;2.30;1.10;;;10.20;99.90;;;;;;5090551;28;20184;-64
2023/11/09 05:33:37;;;;;;;1.30;1.20;;;10.20;99.90;;;;;;5087019;28;20181;-62
2023/11/09 05:36:07;;;;;;;1.27;0.90;;;10.20;99.90;;;;;;5089933;28;20528;-64
2023/11/09 05:38:35;;;;;;;2.50;1.10;;;10.20;99.90;;;;;;5092132;28;20527;-63
2023/11/09 05:41:00;;;;;;;1.30;1.20;;;10.20;99.90;;;;;;5089746;28;21023;-63
2023/11/09 05:43:27;;;;;;;1.43;1.00;;;10.20;99.90;;;;;;5088086;28;20490;-63
2023/11/09 05:45:53;;;;;;;1.10;1.00;;;10.20;99.90;;;;;;5087866;28;20208;-62
2023/11/09 05:48:19;;;;;;;1.77;0.90;;;10.20;99.90;;;;;;5087839;28;20424;-63
2023/11/09 05:50:44;;;;;;;1.10;1.00;;;10.20;99.90;;;;;;5089826;28;20429;-63
2023/11/09 05:53:10;;;;;;;1.90;1.07;;;10.10;99.90;;;;;;5092442;28;20184;-62
2023/11/09 05:55:36;;;;;;;1.60;1.30;;;10.10;99.90;;;;;;5089405;28;20187;-64
2023/11/09 05:58:03;;;;;;;1.33;1.17;;;10.10;99.90;;;;;;5093760;28;20256;-62
2023/11/09 06:00:30;;;;;;;1.30;1.20;;;10.10;99.90;;;;;;5089512;28;20184;-62
2023/11/09 06:02:58;;;;;;;0.80;0.70;;;10.10;99.90;;;;;;5088582;28;20517;-61
2023/11/09 06:05:26;;;;;;;1.03;0.93;;;10.10;99.90;;;;;;5089854;28;20483;-62
2023/11/09 06:07:53;;;;;;;1.27;1.00;;;10.10;99.90;;;;;;5092155;28;20429;-65
2023/11/09 06:10:20;;;;;;;1.50;1.10;;;10.10;99.90;;;;;;5089244;28;20438;-63
2023/11/09 06:12:46;;;;;;;0.80;0.80;;;10.10;99.90;;;;;;5087102;28;20529;-64
2023/11/09 06:15:15;;;;;;;1.23;0.97;;;10.20;99.90;;;;;;5088980;28;20755;-63
2023/11/09 06:17:43;;;;;;;1.23;1.00;;;10.20;99.90;;;;;;5087400;28;20490;-64
2023/11/09 06:20:13;;;;;;;2.73;1.20;;;10.20;99.90;;;;;;5088428;28;20462;-64
2023/11/09 06:22:43;;;;;;;1.60;0.87;;;10.20;99.90;;;;;;5087399;28;20624;-64
2023/11/09 06:25:10;;;;;;;1.43;1.20;;;10.20;99.90;;;;;;5087911;28;20478;-64
2023/11/09 06:27:36;;;;;;;1.00;0.93;;;10.10;99.90;;;;;;5087323;28;21102;-63
2023/11/09 06:30:03;;;;;;;1.80;1.10;;;10.10;99.90;;;;;;5087994;28;20426;-64
2023/11/09 06:32:33;;;;;;;1.30;1.17;;;10.20;99.90;;;;;;5088048;28;20426;-64
2023/11/09 06:35:01;;;;;;;1.40;1.10;;;10.20;99.90;;;;;;5086655;28;21058;-63
2023/11/09 06:37:27;;;;;;;1.00;0.90;;;10.10;99.90;;;;;;5088193;28;20479;-63
2023/11/09 06:39:56;;;;;;;1.30;1.20;;;10.10;99.90;;;;;;5088225;28;20458;-63
2023/11/09 06:42:22;;;;;;;1.50;1.10;;;10.10;99.90;;;;;;5087444;28;20832;-64
2023/11/09 06:44:47;;;;;;;1.63;1.10;;;10.20;99.90;;;;;;5091325;28;20528;-63
2023/11/09 06:47:13;;;;;;;0.90;0.90;;;10.10;99.90;;;;;;5088017;28;20973;-63
2023/11/09 06:49:39;;;;;;;1.33;1.07;;;10.20;99.90;;;;;;5087409;28;20231;-65
2023/11/09 06:52:05;;;;;;;1.00;0.90;;;10.10;99.90;;;;;;5086497;28;20465;-65
2023/11/09 06:54:32;;;;;;;1.00;0.97;;;10.00;99.90;;;;;;5084450;28;20187;-64
2023/11/09 06:56:58;;;;;;;1.30;1.10;;;10.10;99.90;;;;;;5085335;28;20435;-64
2023/11/09 06:59:24;;;;;;;1.30;1.07;;;10.10;99.90;;;;;;5086060;28;20427;-64
2023/11/09 07:01:50;;;;;;;1.77;0.90;;;10.10;99.90;;;;;;5087167;28;20472;-63
2023/11/09 07:04:17;;;;;;;1.43;1.10;;;10.10;99.90;;;;;;5085421;28;20195;-63
2023/11/09 07:06:43;;;;;;;1.00;0.87;;;10.00;99.90;;;;;;5084353;28;20192;-63
2023/11/09 07:09:09;;;;;;;0.90;0.87;;;10.00;99.90;;;;;;5084455;28;21080;-63
2023/11/09 07:11:35;;;;;;;1.10;1.00;;;10.00;99.90;;;;;;5088211;28;20430;-65
2023/11/09 07:14:01;;;;;;;0.90;0.77;;;10.10;99.90;;;;;;5086182;28;20176;-64
2023/11/09 07:16:27;;;;;;;0.87;0.77;;;10.10;99.90;;;;;;5086825;28;20429;-63
2023/11/09 07:18:53;;;;;;;1.40;0.83;;;10.10;99.90;;;;;;5088657;28;20437;-65
2023/11/09 07:21:21;;;;;;;0.80;0.60;;;10.10;99.90;;;;;;5086231;28;20880;-63
2023/11/09 07:23:48;;;;;;;1.07;0.97;;;10.10;99.90;;;;;;5085940;28;20184;-65
2023/11/09 07:26:14;;;;;;;0.90;0.77;;;10.20;99.90;;;;;;5089171;28;20531;-65
2023/11/09 07:28:41;;;;;;;0.70;0.70;;;10.20;99.90;;;;;;5069197;28;20438;-64
2023/11/09 07:31:06;;;;;;;1.23;0.90;;;10.20;99.90;;;;;;5087196;28;20423;-64
2023/11/09 07:33:33;;;;;;;0.90;0.77;;;10.20;99.90;;;;;;5086654;28;20436;-66
2023/11/09 07:35:59;;;;;;;0.80;0.80;;;10.20;99.90;;;;;;5088266;28;20184;-64
2023/11/09 07:38:26;;;;;;;0.80;0.80;;;10.20;99.90;;;;;;5087845;28;20934;-65
2023/11/09 07:40:51;;;;;;;1.67;0.90;;;10.20;99.90;;;;;;5088793;28;20428;-63
2023/11/09 07:43:18;;;;;;;2.27;0.77;;;10.20;99.90;;;;;;5085370;28;20686;-64
2023/11/09 07:45:44;;;;;;;1.10;1.00;;;10.20;99.90;;;;;;5088619;28;20195;-64
2023/11/09 07:48:10;;;;;;;0.87;0.87;;;10.20;99.90;;;;;;5088077;28;20430;-65
2023/11/09 07:50:36;;;;;;;1.43;0.70;;;10.20;99.90;;;;;;5092449;28;20452;-66
2023/11/09 07:53:02;;;;;;;3.00;0.73;;;10.20;99.90;;;;;;5085404;28;20179;-64
2023/11/09 07:55:31;;;;;;;0.50;0.43;;;10.30;99.90;;;;;;5088109;28;20982;-64
2023/11/09 07:57:58;;;;;;;0.60;0.60;;;10.30;99.90;;;;;;5087661;28;20184;-65
2023/11/09 08:00:24;;;;;;;0.83;0.53;;;10.20;99.90;;;;;;5087930;28;20480;-65
2023/11/09 08:02:50;;;;;;;0.73;0.70;;;10.20;99.90;;;;;;5088332;28;20478;-66
2023/11/09 08:05:16;;;;;;;0.57;0.50;;;10.10;99.90;;;;;;5087358;28;20995;-64
2023/11/09 08:07:42;;;;;;;1.10;0.70;;;10.10;99.90;;;;;;5091097;28;20437;-65
2023/11/09 08:10:09;;;;;;;0.70;0.70;;;10.10;99.90;;;;;;5088192;28;20309;-65
2023/11/09 08:12:36;;;;;;;0.93;0.70;;;10.10;99.90;;;;;;5089971;28;21051;-64
2023/11/09 08:15:09;;;;;;;0.70;0.60;;;10.10;99.90;;;;;;5091244;28;20493;-65
2023/11/09 08:17:39;;;;;;;0.67;0.67;;;10.10;99.90;;;;;;5092969;28;20461;-64
2023/11/09 08:20:07;;;;;;;0.67;0.60;;;10.10;99.90;;;;;;5092142;28;20512;-63
2023/11/09 08:22:35;;;;;;;0.60;0.60;;;10.10;99.90;;;;;;5091319;28;20468;-62
2023/11/09 08:25:02;;;;;;;0.80;0.70;;;10.10;99.90;;;;;;5091522;28;20442;-62
2023/11/09 08:27:30;;;;;;;0.70;0.60;;;10.20;99.90;;;;;;5091461;28;20426;-64
2023/11/09 08:29:57;;;;;;;0.60;0.60;;;10.10;99.90;;;;;;5090757;28;21047;-62
2023/11/09 08:32:25;;;;;;;0.90;0.73;;;10.10;99.90;;;;;;5091563;28;20516;-64
2023/11/09 08:34:52;;;;;;;1.57;0.50;;;10.00;99.90;;;;;;5091508;28;20422;-63
2023/11/09 08:37:18;;;;;;;1.33;1.00;;;10.10;99.90;;;;;;5090915;28;20514;-64
2023/11/09 08:39:44;;;;;;;1.83;0.90;;;10.10;99.90;;;;;;5092242;28;20429;-63
2023/11/09 08:42:10;;;;;;;0.70;0.60;;;10.10;99.90;;;;;;5091542;28;20472;-63
2023/11/09 08:44:36;;;;;;;0.80;0.67;;;10.10;99.90;;;;;;5091428;28;20437;-62
2023/11/09 08:47:02;;;;;;;1.17;0.77;;;10.10;99.90;;;;;;5095589;28;20195;-64
2023/11/09 08:49:28;;;;;;;1.57;0.70;;;10.10;99.90;;;;;;5091500;28;20785;-66
2023/11/09 08:51:54;;;;;;;1.90;1.07;;;10.20;99.90;;;;;;5092786;28;20473;-63
2023/11/09 08:54:19;;;;;;;0.80;0.60;;;10.20;99.90;;;;;;5089882;28;20251;-64
2023/11/09 08:56:46;;;;;;;0.77;0.77;;;10.20;99.90;;;;;;5096385;28;20199;-64
2023/11/09 08:59:12;;;;;;;0.60;0.60;;;10.20;99.90;;;;;;5092425;28;20188;-63
2023/11/09 09:01:39;;;;;;;0.80;0.77;;;10.30;99.90;;;;;;5091837;28;20481;-62
2023/11/09 09:04:05;;;;;;;1.57;0.80;;;10.20;99.90;;;;;;5092132;28;20196;-64
2023/11/09 09:06:30;;;;;;;6.60;0.80;;;10.30;99.90;;;;;;5092007;28;20465;-64
2023/11/09 09:08:56;;;;;;;1.70;0.83;;;10.30;99.90;;;;;;5095747;28;20184;-62
2023/11/09 09:11:22;;;;;;;2.37;1.20;;;10.30;99.90;;;;;;5091825;28;21722;-63
2023/11/09 09:13:48;;;;;;;1.63;0.90;;;10.40;99.90;;;;;;5094048;28;20429;-64
2023/11/09 09:16:15;;;;;;;4.80;1.40;;;10.40;99.90;;;;;;5092370;28;20976;-63
2023/11/09 09:18:42;;;;;;;1.20;1.07;;;10.40;99.90;;;;;;5092548;28;20226;-64
2023/11/09 09:21:08;;;;;;;2.93;1.43;;;10.40;99.90;;;;;;5091829;28;20479;-62
2023/11/09 09:23:36;;;;;;;1.47;1.27;;;10.40;99.90;;;;;;5090269;28;20448;-64
2023/11/09 09:26:03;;;;;;;2.80;1.40;;;10.50;99.90;;;;;;5073890;28;20436;-63
2023/11/09 09:28:29;;;;;;;3.80;1.60;;;10.50;99.90;;;;;;5093554;28;20568;-63
2023/11/09 09:30:54;;;;;;;3.17;1.87;;;10.50;99.90;;;;;;5092393;28;20418;-62
2023/11/09 09:33:20;;;;;;;2.57;1.33;;;10.60;99.90;;;;;;5093774;28;20168;-64
2023/11/09 09:35:47;;;;;;;1.60;1.30;;;10.70;99.90;;;;;;5092519;28;20188;-62
2023/11/09 09:38:15;;;;;;;1.50;1.13;;;10.60;99.90;;;;;;5095122;28;20970;-62
2023/11/09 09:40:41;;;;;;;3.43;1.63;;;10.60;99.90;;;;;;5091505;28;20495;-64
2023/11/09 09:43:08;;;;;;;5.07;1.43;;;10.60;99.90;;;;;;5090808;28;20478;-63
2023/11/09 09:45:34;;;;;;;3.00;1.57;;;10.60;99.90;;;;;;5090418;28;20541;-63
2023/11/09 09:48:01;;;;;;;3.93;1.53;;;10.60;99.90;;;;;;5091992;28;20429;-63
2023/11/09 09:50:29;;;;;;;4.07;1.20;;;10.60;99.90;;;;;;5088708;28;20843;-63
2023/11/09 09:52:59;;;;;;;3.60;1.60;;;10.60;99.90;;;;;;5090991;28;20967;-63
2023/11/09 09:55:27;;;;;;;2.10;1.30;;;10.60;99.90;;;;;;5088643;28;20427;-63
2023/11/09 09:57:53;;;;;;;4.13;1.60;;;10.60;99.90;;;;;;5091598;28;20444;-63
2023/11/09 10:00:24;;;;;;;1.93;1.40;;;10.60;99.90;;;;;;5090626;28;20437;-63
2023/11/09 10:02:52;;;;;;;1.83;1.20;;;10.60;99.90;;;;;;5072296;28;20610;-63
2023/11/09 10:05:19;;;;;;;3.93;1.50;;;10.60;99.90;;;;;;5089749;28;20423;-63
2023/11/09 10:08:05;;;;;;;3.10;2.27;;;10.60;99.90;;;;;;5090155;28;20509;-62
2023/11/09 10:10:33;;;;;;;5.30;1.87;;;10.70;99.90;;;;;;5090138;28;21098;-63
2023/11/09 10:13:06;;;;;;;5.00;1.80;;;10.70;99.90;;;;;;5092937;28;20433;-63
2023/11/09 10:15:32;;;;;;;3.93;1.70;;;10.70;99.90;;;;;;5090408;28;20465;-64
2023/11/09 10:17:59;;;;;;;1.77;1.60;;;10.80;99.90;;;;;;5091019;28;20828;-63
2023/11/09 10:20:25;;;;;;;2.00;1.47;;;10.80;99.90;;;;;;5090084;28;20438;-62
2023/11/09 10:22:55;;;;;;;4.27;1.67;;;10.90;99.90;;;;;;5091240;28;20465;-62
2023/11/09 10:25:27;;;;;;;4.90;2.03;;;10.80;99.90;;;;;;5092257;28;20701;-65
2023/11/09 10:28:00;;;;;;;10.20;2.23;;;10.70;99.90;;;;;;5091739;28;20437;-62
2023/11/09 10:30:40;;;;;;;5.40;1.80;;;10.60;99.90;;;;;;5092066;28;20433;-63
2023/11/09 10:33:11;;;;;;;3.47;1.60;;;10.60;99.90;;;;;;5089266;28;20847;-64
2023/11/09 10:35:38;;;;;;;6.07;2.00;;;10.60;99.90;;;;;;5093507;28;20802;-62
2023/11/09 10:38:09;;;;;;;3.50;2.30;;;10.60;99.90;;;;;;5089646;28;20442;-65
2023/11/09 10:40:44;;;;;;;3.70;1.77;;;10.60;99.90;;;;;;5089636;28;20598;-63
2023/11/09 10:43:14;;;;;;;4.40;2.27;;;10.60;99.90;;;;;;5089702;28;21166;-62
2023/11/09 10:45:42;;;;;;;9.87;2.40;;;10.60;99.90;;;;;;5088717;28;20443;-64
2023/11/09 10:48:17;;;;;;;4.53;2.17;;;10.70;99.90;;;;;;5090455;28;20438;-64
2023/11/09 10:50:47;;;;;;;4.97;2.63;;;10.70;99.90;;;;;;5089801;28;20456;-64
2023/11/09 10:53:21;;;;;;;3.17;1.50;;;10.70;99.90;;;;;;5086562;28;20486;-64
2023/11/09 10:55:49;;;;;;;8.57;2.20;;;10.80;99.90;;;;;;5089861;28;20811;-65
2023/11/09 10:58:20;;;;;;;5.30;1.90;;;10.80;99.90;;;;;;5089552;28;20426;-64
2023/11/09 11:00:58;;;;;;;2.80;1.70;;;10.90;99.90;;;;;;5089178;28;20433;-64
2023/11/09 11:03:33;;;;;;;5.83;2.60;;;10.90;99.90;;;;;;5089032;28;20511;-63
2023/11/09 11:06:09;;;;;;;3.57;1.80;;;11.00;99.90;;;;;;5090155;28;20430;-62
2023/11/09 11:08:42;;;;;;;3.10;1.70;;;11.00;99.90;;;;;;5089587;28;20974;-63
2023/11/09 11:11:24;;;;;;;4.50;2.37;;;11.00;99.90;;;;;;5091206;28;20521;-65
2023/11/09 11:13:57;;;;;;;4.90;2.30;;;10.90;99.90;;;;;;5088450;28;20934;-65
2023/11/09 11:16:41;;;;;;;8.23;2.20;;;10.90;99.90;;;;;;5089361;28;20983;-65
2023/11/09 11:19:44;;;;;;;4.50;2.50;;;10.90;99.90;;;;;;5089638;28;20423;-65
2023/11/09 11:22:22;;;;;;;7.80;2.87;;;11.00;99.90;;;;;;5084487;28;20480;-63
2023/11/09 11:25:35;;;;;;;5.70;2.33;;;11.00;99.90;;;;;;5089873;28;20497;-65
2023/11/09 11:28:03;;;;;;;5.73;2.67;;;11.10;99.90;;;;;;5020760;28;20434;-65
2023/11/09 11:30:36;;;;;;;6.57;3.00;;;11.10;99.90;;;;;;5089073;28;20954;-63
2023/11/09 11:33:16;;;;;;;3.53;2.17;;;11.10;99.90;;;;;;5089064;28;20457;-63
2023/11/09 11:35:43;;;;;;;9.23;2.40;;;11.20;99.90;;;;;;5072398;28;20441;-64
2023/11/09 11:38:29;;;;;;;4.30;2.30;;;11.20;99.90;;;;;;5088618;28;20445;-65
2023/11/09 11:41:16;;;;;;;8.43;2.90;;;11.20;99.90;;;;;;5088504;28;20985;-63
2023/11/09 11:43:50;;;;;;;8.23;2.57;;;11.20;99.90;;;;;;5087367;28;20481;-64
2023/11/09 11:46:22;;;;;;;6.60;2.93;;;11.10;99.90;;;;;;5088290;28;20438;-65
2023/11/09 11:48:48;;;;;;;5.37;3.83;;;11.10;99.90;;;;;;5089021;28;20452;-63
2023/11/09 11:51:15;;;;;;;5.23;2.90;;;11.10;99.90;;;;;;5086693;28;20417;-65
2023/11/09 11:53:43;;;;;;;8.20;2.83;;;11.20;99.90;;;;;;5085747;28;20441;-64
2023/11/09 11:56:12;;;;;;;5.83;2.60;;;11.10;99.90;;;;;;5088746;28;20429;-65
2023/11/09 11:58:57;;;;;;;4.70;2.50;;;11.10;99.90;;;;;;5088649;28;20433;-65
2023/11/09 12:01:29;;;;;;;6.27;2.23;;;11.10;99.90;;;;;;5088275;28;20565;-62
2023/11/09 12:03:58;;;;;;;3.47;2.30;;;11.10;99.90;;;;;;5087163;28;20821;-64
2023/11/09 12:06:26;;;;;;;4.90;2.20;;;11.10;99.90;;;;;;5088522;28;20895;-63
2023/11/09 12:09:00;;;;;;;7.17;2.97;;;11.10;99.90;;;;;;5087763;28;20775;-64
2023/11/09 12:11:33;;;;;;;8.67;3.20;;;11.10;99.90;;;;;;5088830;28;21095;-63
2023/11/09 12:14:04;;;;;;;6.10;2.77;;;11.00;99.90;;;;;;5086735;28;20433;-64
2023/11/09 12:16:30;;;;;;;6.77;2.70;;;11.10;99.90;;;;;;5087651;28;20506;-63
2023/11/09 12:18:57;;;;;;;5.93;3.13;;;11.00;99.90;;;;;;5088008;28;20572;-63
2023/11/09 12:21:29;;;;;;;7.90;2.93;;;11.00;99.90;;;;;;5068994;28;20458;-61
2023/11/09 12:23:56;;;;;;;4.10;2.60;;;10.90;99.90;;;;;;5087357;28;21004;-63
2023/11/09 12:26:28;;;;;;;8.23;3.00;;;10.90;99.90;;;;;;5087473;28;20434;-64
2023/11/09 12:28:54;;;;;;;3.43;2.77;;;10.80;99.90;;;;;;5086633;28;20454;-63
2023/11/09 12:31:23;;;;;;;5.83;2.57;;;10.90;99.90;;;;;;5087561;28;20912;-63
2023/11/09 12:34:13;;;;;;;5.17;2.60;;;11.00;99.90;;;;;;5086975;28;20637;-65
2023/11/09 12:36:41;;;;;;;11.77;3.30;;;11.00;99.90;;;;;;5084654;28;20556;-64
2023/11/09 12:39:28;;;;;;;5.40;2.70;;;11.00;99.90;;;;;;5087152;28;20446;-65
2023/11/09 12:41:56;;;;;;;7.20;3.13;;;11.00;99.90;;;;;;5070332;28;21190;-64
2023/11/09 12:44:35;;;;;;;8.37;3.17;;;11.00;99.90;;;;;;5088733;28;20457;-64
2023/11/09 12:47:04;;;;;;;7.13;2.80;;;11.00;99.90;;;;;;5087148;28;20441;-64
2023/11/09 12:49:30;;;;;;;5.13;2.73;;;11.00;99.90;;;;;;5086792;28;20521;-63
2023/11/09 12:51:57;;;;;;;7.00;3.00;;;11.10;99.90;;;;;;5091462;28;20470;-65
2023/11/09 12:54:24;;;;;;;8.20;2.90;;;11.10;99.90;;;;;;5082882;28;20834;-65
2023/11/09 12:56:55;;;;;;;6.47;2.33;;;11.10;99.90;;;;;;5087506;28;20441;-65
2023/11/09 12:59:24;;;;;;;7.70;2.97;;;11.00;99.90;;;;;;5085041;28;20442;-66